Time;durP1;ratioP1;P1;durP2;ratioP2;P2;SDS_P1;SDS_P2;PMS_P1;PMS_P2;Temp;Humidity;BMP_temperature;BMP_pressure;BME280_temperature;BME280_humidity;BME280_pressure;Samples;Min_cycle;Max_cycle;Signal;HPM_P1;HPM_P2
2023/09/16 00:00:08;;;;;;;5.95;3.75;;;;;;;;;;6213871;23;20480;-87
2023/09/16 00:02:37;;;;;;;4.82;3.88;;;;;;;;;;6241808;23;20342;-87
2023/09/16 00:05:04;;;;;;;6.20;4.50;;;;;;;;;;6240853;23;20023;-87
2023/09/16 00:07:31;;;;;;;5.65;3.97;;;;;;;;;;6214283;23;20012;-86
2023/09/16 00:09:57;;;;;;;4.90;3.67;;;;;;;;;;6213643;23;20020;-86
2023/09/16 00:12:26;;;;;;;3.65;3.22;;;;;;;;;;6240590;23;20024;-87
2023/09/16 00:14:53;;;;;;;5.13;3.78;;;;;;;;;;6213995;23;20315;-86
2023/09/16 00:17:19;;;;;;;4.57;3.80;;;;;;;;;;6240782;22;20016;-87
2023/09/16 00:19:45;;;;;;;4.90;4.10;;;;;;;;;;6241358;23;20015;-87
2023/09/16 00:22:11;;;;;;;4.82;3.72;;;;;;;;;;6213209;23;20314;-86
2023/09/16 00:24:37;;;;;;;6.82;3.75;;;;;;;;;;6214429;23;20070;-87
2023/09/16 00:27:04;;;;;;;4.82;3.67;;;;;;;;;;6213214;23;20111;-87
2023/09/16 00:29:30;;;;;;;5.25;3.80;;;;;;;;;;6214244;23;20094;-86
2023/09/16 00:31:56;;;;;;;4.88;3.85;;;;;;;;;;6213839;23;20020;-87
2023/09/16 00:34:22;;;;;;;5.18;3.88;;;;;;;;;;6241237;23;20378;-87
2023/09/16 00:36:48;;;;;;;4.28;3.55;;;;;;;;;;6241573;23;20011;-86
2023/09/16 00:39:15;;;;;;;5.78;3.80;;;;;;;;;;6240512;23;20051;-86
2023/09/16 00:41:41;;;;;;;4.47;3.88;;;;;;;;;;6213968;23;20442;-86
2023/09/16 00:44:07;;;;;;;4.65;4.18;;;;;;;;;;6213502;23;20074;-86
2023/09/16 00:46:33;;;;;;;4.85;3.67;;;;;;;;;;6214659;23;20020;-87
2023/09/16 00:48:59;;;;;;;5.15;3.80;;;;;;;;;;6189143;23;20376;-86
2023/09/16 00:51:25;;;;;;;5.00;3.65;;;;;;;;;;6213933;23;20020;-86
2023/09/16 00:53:52;;;;;;;5.28;4.50;;;;;;;;;;6240976;23;20026;-87
2023/09/16 00:56:18;;;;;;;5.95;3.83;;;;;;;;;;6240198;23;20036;-87
2023/09/16 00:58:45;;;;;;;5.45;4.03;;;;;;;;;;6214235;23;20015;-86
2023/09/16 01:01:12;;;;;;;8.05;4.70;;;;;;;;;;6240989;23;20012;-87
2023/09/16 01:03:41;;;;;;;3.97;3.50;;;;;;;;;;6216275;23;20016;-87
2023/09/16 01:06:07;;;;;;;5.15;4.10;;;;;;;;;;6242849;23;20012;-87
2023/09/16 01:08:37;;;;;;;4.75;3.97;;;;;;;;;;6216422;23;20040;-87
2023/09/16 01:11:06;;;;;;;4.90;4.30;;;;;;;;;;6214836;23;20091;-88
2023/09/16 01:13:33;;;;;;;4.95;4.07;;;;;;;;;;6215635;23;20022;-87
2023/09/16 01:16:18;;;;;;;4.75;4.00;;;;;;;;;;6215302;23;20020;-86
2023/09/16 01:18:49;;;;;;;5.15;3.97;;;;;;;;;;6216230;23;20020;-87
2023/09/16 01:21:16;;;;;;;5.47;4.18;;;;;;;;;;6242031;23;20031;-88
2023/09/16 01:23:43;;;;;;;4.78;3.92;;;;;;;;;;6216177;23;20020;-87
2023/09/16 01:26:09;;;;;;;5.38;4.20;;;;;;;;;;6241594;23;20082;-87
2023/09/16 01:28:35;;;;;;;6.07;4.35;;;;;;;;;;6243200;23;20020;-87
2023/09/16 01:31:02;;;;;;;6.38;4.75;;;;;;;;;;6215412;23;20016;-87
2023/09/16 01:33:36;;;;;;;6.28;4.90;;;;;;;;;;6215729;23;20532;-87
2023/09/16 01:36:07;;;;;;;5.00;4.35;;;;;;;;;;6242517;23;20016;-87
2023/09/16 01:38:35;;;;;;;4.07;3.65;;;;;;;;;;6215849;23;20016;-87
2023/09/16 01:41:02;;;;;;;4.78;3.22;;;;;;;;;;6241770;23;20325;-87
2023/09/16 01:43:28;;;;;;;5.20;3.80;;;;;;;;;;6215468;23;20020;-87
2023/09/16 01:45:54;;;;;;;4.28;3.88;;;;;;;;;;6215373;23;20026;-87
2023/09/16 01:48:20;;;;;;;5.05;3.90;;;;;;;;;;6242954;23;20016;-87
2023/09/16 01:50:46;;;;;;;5.88;4.20;;;;;;;;;;6243949;23;20065;-87
2023/09/16 01:53:12;;;;;;;6.45;4.82;;;;;;;;;;6241783;23;20023;-87
2023/09/16 01:55:38;;;;;;;6.35;5.40;;;;;;;;;;6215310;23;20008;-88
2023/09/16 01:58:05;;;;;;;6.28;5.47;;;;;;;;;;6215223;23;20107;-88
2023/09/16 02:00:31;;;;;;;6.30;5.32;;;;;;;;;;6215279;23;20016;-87
2023/09/16 02:02:57;;;;;;;7.75;5.78;;;;;;;;;;6241969;23;20070;-87
2023/09/16 02:05:23;;;;;;;7.07;5.47;;;;;;;;;;6215454;23;20022;-88
2023/09/16 02:07:49;;;;;;;6.45;5.30;;;;;;;;;;6214936;23;20491;-88
2023/09/16 02:10:15;;;;;;;6.85;5.47;;;;;;;;;;6215363;23;20146;-86
2023/09/16 02:12:41;;;;;;;7.75;5.97;;;;;;;;;;6215250;23;20015;-88
2023/09/16 02:15:09;;;;;;;7.55;5.90;;;;;;;;;;6214980;23;20189;-86
2023/09/16 02:17:36;;;;;;;6.88;5.55;;;;;;;;;;6215393;23;20020;-88
2023/09/16 02:20:02;;;;;;;7.85;6.13;;;;;;;;;;6241689;23;20442;-88
2023/09/16 02:22:28;;;;;;;9.02;5.95;;;;;;;;;;6214824;23;20024;-88
2023/09/16 02:24:54;;;;;;;8.27;5.85;;;;;;;;;;6215403;23;20008;-87
2023/09/16 02:27:20;;;;;;;8.85;5.80;;;;;;;;;;6242146;23;20016;-87
2023/09/16 02:29:48;;;;;;;5.80;5.25;;;;;;;;;;6215374;23;20275;-87
2023/09/16 02:32:14;;;;;;;7.57;6.03;;;;;;;;;;6214733;23;20570;-87
2023/09/16 02:34:40;;;;;;;9.55;6.05;;;;;;;;;;6215614;23;20349;-88
2023/09/16 02:37:06;;;;;;;7.65;6.03;;;;;;;;;;6214300;23;20012;-87
2023/09/16 02:39:32;;;;;;;7.22;5.63;;;;;;;;;;6214874;23;20043;-87
2023/09/16 02:41:58;;;;;;;7.15;5.55;;;;;;;;;;6214785;23;20401;-87
2023/09/16 02:44:24;;;;;;;8.93;5.47;;;;;;;;;;6214890;23;20023;-87
2023/09/16 02:46:53;;;;;;;6.93;5.50;;;;;;;;;;6214760;23;20019;-87
2023/09/16 02:49:19;;;;;;;5.53;4.97;;;;;;;;;;6214796;23;20016;-87
2023/09/16 02:51:45;;;;;;;7.05;5.35;;;;;;;;;;6241424;23;20020;-87
2023/09/16 02:54:11;;;;;;;7.47;5.60;;;;;;;;;;6241351;23;20016;-87
2023/09/16 02:56:37;;;;;;;6.78;5.07;;;;;;;;;;6215192;23;20015;-87
2023/09/16 02:59:03;;;;;;;6.65;5.90;;;;;;;;;;6241611;23;20070;-87
2023/09/16 03:01:29;;;;;;;6.22;5.22;;;;;;;;;;6215227;23;20074;-87
2023/09/16 03:03:55;;;;;;;7.18;5.78;;;;;;;;;;6214338;23;20102;-87
2023/09/16 03:06:22;;;;;;;6.18;5.53;;;;;;;;;;6241327;23;20116;-87
2023/09/16 03:08:49;;;;;;;7.93;5.55;;;;;;;;;;6242393;23;20088;-87
2023/09/16 03:11:15;;;;;;;7.07;5.53;;;;;;;;;;6214426;23;20051;-87
2023/09/16 03:13:42;;;;;;;7.85;5.82;;;;;;;;;;6215096;23;20016;-87
2023/09/16 03:16:14;;;;;;;9.55;6.53;;;;;;;;;;6188783;23;20066;-87
2023/09/16 03:18:42;;;;;;;7.18;5.38;;;;;;;;;;6241694;23;20087;-87
2023/09/16 03:21:08;;;;;;;7.97;5.75;;;;;;;;;;6240048;23;20012;-87
2023/09/16 03:23:34;;;;;;;7.75;5.97;;;;;;;;;;6241830;23;20306;-87
2023/09/16 03:26:00;;;;;;;7.10;5.85;;;;;;;;;;6214234;23;20016;-88
2023/09/16 03:28:26;;;;;;;6.97;5.40;;;;;;;;;;6241796;23;20016;-87
2023/09/16 03:30:52;;;;;;;8.55;5.72;;;;;;;;;;6241497;23;20464;-87
2023/09/16 03:33:18;;;;;;;8.95;5.35;;;;;;;;;;6241604;23;20047;-87
2023/09/16 03:35:44;;;;;;;7.70;5.75;;;;;;;;;;6214430;23;20074;-87
2023/09/16 03:38:10;;;;;;;6.20;5.10;;;;;;;;;;6213678;23;20012;-87
2023/09/16 03:40:36;;;;;;;7.20;5.20;;;;;;;;;;6242081;23;20012;-87
2023/09/16 03:43:04;;;;;;;7.93;5.75;;;;;;;;;;6240856;23;20039;-87
2023/09/16 03:45:30;;;;;;;7.20;5.68;;;;;;;;;;6215746;23;20016;-88
2023/09/16 03:47:56;;;;;;;5.93;5.18;;;;;;;;;;6214946;23;20023;-87
2023/09/16 03:50:22;;;;;;;5.20;4.45;;;;;;;;;;6213691;23;20012;-88
2023/09/16 03:52:49;;;;;;;5.05;4.55;;;;;;;;;;6241850;23;20008;-87
2023/09/16 03:55:15;;;;;;;5.53;4.72;;;;;;;;;;6214306;23;20027;-88
2023/09/16 03:57:41;;;;;;;4.68;3.95;;;;;;;;;;6242112;23;20012;-88
2023/09/16 04:00:10;;;;;;;6.25;4.35;;;;;;;;;;6241193;23;20377;-88
2023/09/16 04:02:36;;;;;;;5.10;4.45;;;;;;;;;;6241775;23;20016;-88
2023/09/16 04:05:04;;;;;;;5.25;4.75;;;;;;;;;;6213837;23;20040;-88
2023/09/16 04:07:30;;;;;;;8.70;5.53;;;;;;;;;;6214287;23;20027;-87
2023/09/16 04:09:56;;;;;;;6.32;4.68;;;;;;;;;;6240977;23;20012;-88
2023/09/16 04:12:22;;;;;;;5.72;5.13;;;;;;;;;;6214154;23;20370;-88
2023/09/16 04:14:48;;;;;;;5.25;4.70;;;;;;;;;;6214620;23;20016;-88
2023/09/16 04:17:14;;;;;;;4.85;4.00;;;;;;;;;;6213845;23;20099;-88
2023/09/16 04:19:40;;;;;;;4.38;3.95;;;;;;;;;;6241219;23;20099;-88
2023/09/16 04:22:06;;;;;;;4.38;3.97;;;;;;;;;;6213974;23;20020;-88
2023/09/16 04:24:32;;;;;;;4.88;4.05;;;;;;;;;;6214195;23;20020;-89
2023/09/16 04:26:58;;;;;;;4.70;4.30;;;;;;;;;;6213997;23;20012;-90
2023/09/16 04:29:24;;;;;;;3.55;3.25;;;;;;;;;;6214494;23;20016;-89
2023/09/16 04:31:51;;;;;;;3.58;3.20;;;;;;;;;;6241378;23;20008;-89
2023/09/16 04:34:17;;;;;;;5.63;3.78;;;;;;;;;;6213466;23;20039;-89
2023/09/16 04:36:43;;;;;;;5.47;3.00;;;;;;;;;;6243842;23;20012;-88
2023/09/16 04:39:09;;;;;;;3.17;2.88;;;;;;;;;;6242578;23;20018;-89
2023/09/16 04:41:35;;;;;;;3.92;3.60;;;;;;;;;;6243955;23;20322;-90
2023/09/16 04:44:01;;;;;;;3.42;3.08;;;;;;;;;;6216003;23;20350;-89
2023/09/16 04:46:28;;;;;;;4.97;3.80;;;;;;;;;;6216601;23;20023;-88
2023/09/16 04:48:55;;;;;;;3.75;3.45;;;;;;;;;;6242452;23;20048;-88
2023/09/16 04:51:21;;;;;;;3.60;3.28;;;;;;;;;;6215977;23;20400;-88
2023/09/16 04:53:49;;;;;;;3.80;3.42;;;;;;;;;;6243762;23;20016;-89
2023/09/16 04:56:15;;;;;;;3.70;3.40;;;;;;;;;;6215904;23;20026;-90
2023/09/16 04:58:42;;;;;;;4.72;4.32;;;;;;;;;;6243832;23;20094;-89
2023/09/16 05:01:08;;;;;;;6.30;4.22;;;;;;;;;;6242703;23;20050;-88
2023/09/16 05:03:34;;;;;;;4.35;3.95;;;;;;;;;;6243035;23;20043;-88
2023/09/16 05:06:00;;;;;;;4.78;4.30;;;;;;;;;;6242993;23;20008;-89
2023/09/16 05:08:26;;;;;;;5.38;4.43;;;;;;;;;;6216070;23;20050;-88
2023/09/16 05:10:53;;;;;;;6.30;4.72;;;;;;;;;;6215821;23;20016;-87
2023/09/16 05:13:19;;;;;;;6.97;5.05;;;;;;;;;;6216098;23;20023;-88
2023/09/16 05:15:49;;;;;;;7.03;4.85;;;;;;;;;;6216212;23;20095;-88
2023/09/16 05:18:16;;;;;;;5.22;4.72;;;;;;;;;;6241997;23;20028;-88
2023/09/16 05:20:42;;;;;;;5.65;4.75;;;;;;;;;;6216145;23;20445;-88
2023/09/16 05:23:08;;;;;;;6.72;5.35;;;;;;;;;;6242184;23;20020;-88
2023/09/16 05:25:34;;;;;;;5.22;4.72;;;;;;;;;;6216125;23;20016;-87
2023/09/16 05:28:00;;;;;;;5.40;4.90;;;;;;;;;;6242661;23;20018;-87
2023/09/16 05:30:26;;;;;;;5.65;4.65;;;;;;;;;;6242514;23;20008;-89
2023/09/16 05:32:52;;;;;;;5.78;4.90;;;;;;;;;;6215341;23;20016;-88
2023/09/16 05:35:18;;;;;;;5.47;4.82;;;;;;;;;;6215531;23;20019;-88
2023/09/16 05:37:44;;;;;;;5.18;4.50;;;;;;;;;;6216291;23;20016;-88
2023/09/16 05:40:10;;;;;;;5.43;4.40;;;;;;;;;;6242556;23;20027;-88
2023/09/16 05:42:36;;;;;;;5.22;4.63;;;;;;;;;;6245146;23;20019;-88
2023/09/16 05:45:03;;;;;;;6.60;4.88;;;;;;;;;;6242356;23;20016;-88
2023/09/16 05:47:30;;;;;;;7.32;5.55;;;;;;;;;;6241595;23;20023;-88
2023/09/16 05:49:56;;;;;;;5.53;4.93;;;;;;;;;;6242455;23;20016;-88
2023/09/16 05:52:22;;;;;;;8.07;5.45;;;;;;;;;;6242573;23;20087;-88
2023/09/16 05:54:48;;;;;;;7.97;6.38;;;;;;;;;;6242897;23;20047;-88
2023/09/16 05:57:14;;;;;;;7.35;5.70;;;;;;;;;;6242133;23;20091;-89
2023/09/16 05:59:40;;;;;;;7.03;5.97;;;;;;;;;;6215923;23;20051;-88
2023/09/16 06:02:06;;;;;;;8.95;6.60;;;;;;;;;;6214636;23;20016;-88
2023/09/16 06:04:32;;;;;;;8.43;6.70;;;;;;;;;;6215344;23;20016;-89
2023/09/16 06:06:58;;;;;;;11.60;7.22;;;;;;;;;;6215067;23;20406;-88
2023/09/16 06:09:24;;;;;;;9.57;6.93;;;;;;;;;;6215702;23;20023;-88
2023/09/16 06:11:50;;;;;;;7.55;6.45;;;;;;;;;;6215245;23;20016;-88
2023/09/16 06:14:16;;;;;;;9.75;7.45;;;;;;;;;;6215313;23;20450;-88
2023/09/16 06:16:42;;;;;;;8.23;6.85;;;;;;;;;;6241677;23;20046;-88
2023/09/16 06:19:08;;;;;;;10.10;7.60;;;;;;;;;;6242067;23;20012;-88
2023/09/16 06:21:34;;;;;;;7.88;6.47;;;;;;;;;;6215775;23;20012;-88
2023/09/16 06:24:00;;;;;;;8.43;7.22;;;;;;;;;;6214920;23;20064;-88
2023/09/16 06:26:26;;;;;;;8.57;6.70;;;;;;;;;;6215484;23;20422;-88
2023/09/16 06:28:52;;;;;;;9.68;7.60;;;;;;;;;;6241828;23;20008;-88
2023/09/16 06:31:18;;;;;;;10.13;8.10;;;;;;;;;;6241880;23;20336;-88
2023/09/16 06:33:44;;;;;;;8.38;7.47;;;;;;;;;;6215573;23;20012;-88
2023/09/16 06:36:10;;;;;;;10.38;7.43;;;;;;;;;;6214801;23;20373;-87
2023/09/16 06:38:36;;;;;;;10.75;7.28;;;;;;;;;;6215467;23;20091;-88
2023/09/16 06:41:02;;;;;;;8.73;6.85;;;;;;;;;;6214820;23;20016;-88
2023/09/16 06:43:28;;;;;;;12.35;7.95;;;;;;;;;;6241440;23;20016;-90
2023/09/16 06:45:54;;;;;;;12.35;7.43;;;;;;;;;;6215374;23;20015;-87
2023/09/16 06:48:20;;;;;;;11.10;7.38;;;;;;;;;;6242150;23;20004;-88
2023/09/16 06:50:46;;;;;;;9.20;7.47;;;;;;;;;;6242646;23;20012;-88
2023/09/16 06:53:12;;;;;;;9.32;7.20;;;;;;;;;;6241083;23;20019;-87
2023/09/16 06:55:38;;;;;;;9.57;7.72;;;;;;;;;;6215396;23;20429;-88
2023/09/16 06:58:06;;;;;;;9.82;7.75;;;;;;;;;;6214205;23;20016;-87
2023/09/16 07:00:32;;;;;;;9.27;7.78;;;;;;;;;;6215115;23;20012;-87
2023/09/16 07:02:58;;;;;;;9.25;7.40;;;;;;;;;;6214443;23;20047;-87
2023/09/16 07:05:29;;;;;;;9.57;7.68;;;;;;;;;;6215128;23;20027;-88
2023/09/16 07:07:55;;;;;;;9.57;7.78;;;;;;;;;;6189313;23;20349;-87
2023/09/16 07:10:21;;;;;;;10.55;7.85;;;;;;;;;;6214611;23;20103;-87
2023/09/16 07:12:47;;;;;;;10.38;8.38;;;;;;;;;;6214425;23;20090;-87
2023/09/16 07:15:15;;;;;;;9.63;7.90;;;;;;;;;;6214406;23;20492;-87
2023/09/16 07:17:41;;;;;;;12.00;8.45;;;;;;;;;;6214978;23;20019;-86
2023/09/16 07:20:07;;;;;;;9.85;7.82;;;;;;;;;;6214382;23;20343;-86
2023/09/16 07:22:33;;;;;;;11.10;8.10;;;;;;;;;;6215194;23;20012;-86
2023/09/16 07:24:59;;;;;;;10.13;7.90;;;;;;;;;;6214127;23;20012;-87
2023/09/16 07:27:25;;;;;;;9.75;7.55;;;;;;;;;;6240737;23;20023;-87
2023/09/16 07:29:51;;;;;;;11.93;8.30;;;;;;;;;;6214491;23;20020;-87
2023/09/16 07:32:17;;;;;;;9.73;7.88;;;;;;;;;;6241000;23;20315;-86
2023/09/16 07:34:43;;;;;;;10.48;7.70;;;;;;;;;;6214893;23;20437;-86
2023/09/16 07:37:09;;;;;;;10.40;8.00;;;;;;;;;;6213768;23;20051;-86
2023/09/16 07:39:35;;;;;;;9.70;7.70;;;;;;;;;;6215432;23;20497;-86
2023/09/16 07:42:01;;;;;;;9.02;7.38;;;;;;;;;;6240619;23;20138;-86
2023/09/16 07:44:27;;;;;;;10.50;7.80;;;;;;;;;;6241591;23;20066;-86
2023/09/16 07:46:53;;;;;;;9.13;8.02;;;;;;;;;;6241654;23;20020;-86
2023/09/16 07:49:19;;;;;;;11.90;7.57;;;;;;;;;;6241362;23;20091;-86
2023/09/16 07:51:46;;;;;;;9.07;7.70;;;;;;;;;;6241821;23;20400;-86
2023/09/16 07:54:14;;;;;;;10.80;8.00;;;;;;;;;;6213600;23;20012;-86
2023/09/16 07:56:40;;;;;;;8.90;7.70;;;;;;;;;;6241173;23;20044;-86
2023/09/16 07:59:06;;;;;;;8.95;7.43;;;;;;;;;;6214192;23;20019;-87
2023/09/16 08:01:32;;;;;;;10.50;8.48;;;;;;;;;;6214219;23;20016;-87
2023/09/16 08:03:58;;;;;;;8.98;7.50;;;;;;;;;;6213819;23;20035;-88
2023/09/16 08:06:26;;;;;;;10.32;8.02;;;;;;;;;;6240992;23;20400;-87
2023/09/16 08:08:52;;;;;;;9.70;7.60;;;;;;;;;;6241451;23;20340;-87
2023/09/16 08:11:19;;;;;;;12.43;8.02;;;;;;;;;;6239803;23;20331;-87
2023/09/16 08:13:46;;;;;;;11.40;8.45;;;;;;;;;;6214294;23;20012;-86
2023/09/16 08:16:12;;;;;;;10.63;7.45;;;;;;;;;;6213082;23;20016;-86
2023/09/16 08:18:38;;;;;;;9.48;8.02;;;;;;;;;;6241609;23;20091;-86
2023/09/16 08:21:04;;;;;;;10.18;8.10;;;;;;;;;;6241016;23;20333;-87
2023/09/16 08:23:30;;;;;;;9.68;7.70;;;;;;;;;;6214272;23;20016;-86
2023/09/16 08:25:56;;;;;;;8.88;7.30;;;;;;;;;;6240129;23;20042;-87
2023/09/16 08:28:22;;;;;;;9.10;7.57;;;;;;;;;;6214122;23;20016;-87
2023/09/16 08:30:48;;;;;;;9.15;7.68;;;;;;;;;;6214782;23;20434;-87
2023/09/16 08:33:14;;;;;;;10.57;7.60;;;;;;;;;;6240805;23;20016;-86
2023/09/16 08:35:40;;;;;;;8.45;7.30;;;;;;;;;;6214465;23;20009;-87
2023/09/16 08:38:07;;;;;;;8.20;7.25;;;;;;;;;;6240783;23;20333;-87
2023/09/16 08:40:33;;;;;;;8.85;7.30;;;;;;;;;;6240994;23;20047;-86
2023/09/16 08:42:59;;;;;;;8.32;6.75;;;;;;;;;;6240805;23;20385;-88
2023/09/16 08:45:26;;;;;;;9.13;6.68;;;;;;;;;;6241137;23;20039;-86
2023/09/16 08:47:55;;;;;;;11.40;7.72;;;;;;;;;;6214059;23;20016;-87
2023/09/16 08:50:22;;;;;;;10.38;7.15;;;;;;;;;;6241128;23;20016;-87
2023/09/16 08:52:54;;;;;;;9.32;6.53;;;;;;;;;;6240988;23;20499;-85
2023/09/16 08:55:20;;;;;;;7.80;6.38;;;;;;;;;;6213301;23;20048;-86
2023/09/16 08:58:02;;;;;;;7.43;6.30;;;;;;;;;;6214402;23;20020;-85
2023/09/16 09:00:28;;;;;;;6.72;6.03;;;;;;;;;;6241178;23;20115;-86
2023/09/16 09:02:54;;;;;;;7.65;6.55;;;;;;;;;;6240912;23;20047;-85
2023/09/16 09:05:23;;;;;;;6.90;5.57;;;;;;;;;;6240742;23;20063;-85
2023/09/16 09:07:49;;;;;;;8.77;6.57;;;;;;;;;;6213903;23;20094;-85
2023/09/16 09:10:15;;;;;;;7.63;6.20;;;;;;;;;;6240066;23;20477;-86
2023/09/16 09:12:42;;;;;;;8.80;5.65;;;;;;;;;;6241381;23;20019;-86
2023/09/16 09:15:11;;;;;;;8.55;5.82;;;;;;;;;;6240441;23;20311;-87
2023/09/16 09:17:39;;;;;;;6.85;5.47;;;;;;;;;;6214116;23;20024;-90
2023/09/16 09:20:05;;;;;;;6.90;4.88;;;;;;;;;;6213437;23;20043;-86
2023/09/16 09:22:33;;;;;;;7.32;5.55;;;;;;;;;;6214604;23;20315;-86
2023/09/16 09:24:59;;;;;;;6.00;4.88;;;;;;;;;;6214788;23;20016;-86
2023/09/16 09:27:26;;;;;;;6.45;5.35;;;;;;;;;;6242352;23;20509;-86
2023/09/16 09:29:52;;;;;;;4.95;4.13;;;;;;;;;;6242616;23;20066;-86
2023/09/16 09:32:18;;;;;;;5.68;4.22;;;;;;;;;;6242348;23;20330;-86
2023/09/16 09:34:45;;;;;;;7.00;4.35;;;;;;;;;;6242976;23;20468;-86
2023/09/16 09:37:17;;;;;;;7.53;4.45;;;;;;;;;;6242239;23;20009;-85
2023/09/16 09:39:45;;;;;;;6.47;4.30;;;;;;;;;;6242489;23;20081;-85
2023/09/16 09:42:11;;;;;;;6.03;4.18;;;;;;;;;;6215311;23;20497;-85
2023/09/16 09:44:37;;;;;;;5.05;4.47;;;;;;;;;;6215826;23;20038;-85
2023/09/16 09:47:03;;;;;;;6.20;4.70;;;;;;;;;;6215253;23;20404;-86
2023/09/16 09:49:29;;;;;;;7.97;4.60;;;;;;;;;;6242558;23;20070;-85
2023/09/16 09:51:55;;;;;;;6.18;4.45;;;;;;;;;;6214328;23;20016;-85
2023/09/16 09:54:21;;;;;;;5.30;4.43;;;;;;;;;;6242411;23;20016;-85
2023/09/16 09:56:47;;;;;;;7.70;4.72;;;;;;;;;;6215913;23;20038;-85
2023/09/16 09:59:14;;;;;;;5.65;5.10;;;;;;;;;;6214862;23;20016;-85
2023/09/16 10:01:41;;;;;;;5.75;4.45;;;;;;;;;;6215694;23;20055;-85
2023/09/16 10:04:07;;;;;;;5.97;4.47;;;;;;;;;;6241520;23;20014;-85
2023/09/16 10:06:33;;;;;;;5.47;4.57;;;;;;;;;;6214898;23;20110;-85
2023/09/16 10:08:59;;;;;;;5.32;3.75;;;;;;;;;;6215406;23;20020;-86
2023/09/16 10:11:28;;;;;;;4.50;4.03;;;;;;;;;;6215126;23;20087;-87
2023/09/16 10:13:55;;;;;;;7.75;4.75;;;;;;;;;;6241833;23;20019;-85
2023/09/16 10:16:21;;;;;;;5.20;4.63;;;;;;;;;;6215053;23;20016;-85
2023/09/16 10:18:47;;;;;;;5.32;4.13;;;;;;;;;;6215833;23;20016;-84
2023/09/16 10:21:14;;;;;;;4.40;4.00;;;;;;;;;;6241112;23;20333;-86
2023/09/16 10:23:40;;;;;;;7.10;4.28;;;;;;;;;;6215622;23;20023;-85
2023/09/16 10:26:07;;;;;;;3.92;3.22;;;;;;;;;;6242026;23;20260;-84
2023/09/16 10:28:37;;;;;;;4.95;3.38;;;;;;;;;;6215540;23;20016;-84
2023/09/16 10:31:03;;;;;;;;;;;;;;;;;;6215312;23;20066;-84
2023/09/16 10:33:29;;;;;;;3.53;3.22;;;;;;;;;;6241944;23;19919;-85
2023/09/16 10:35:56;;;;;;;3.55;3.00;;;;;;;;;;6241401;23;20380;-85
2023/09/16 10:38:23;;;;;;;3.20;2.85;;;;;;;;;;6241995;23;20090;-86
2023/09/16 10:40:50;;;;;;;3.65;3.30;;;;;;;;;;6242232;23;20043;-88
2023/09/16 10:43:16;;;;;;;3.50;3.20;;;;;;;;;;6241633;23;20012;-85
2023/09/16 10:45:42;;;;;;;2.90;2.60;;;;;;;;;;6242235;23;20023;-85
2023/09/16 10:48:08;;;;;;;4.25;2.90;;;;;;;;;;6214414;23;20083;-84
2023/09/16 10:50:37;;;;;;;3.63;3.30;;;;;;;;;;6241769;23;20023;-84
2023/09/16 10:53:11;;;;;;;3.67;3.08;;;;;;;;;;6214418;23;20070;-85
2023/09/16 10:55:56;;;;;;;4.10;2.88;;;;;;;;;;6242710;23;20016;-84
2023/09/16 10:58:48;;;;;;;3.60;3.17;;;;;;;;;;6242074;23;20016;-85
2023/09/16 11:01:36;;;;;;;3.90;3.50;;;;;;;;;;6234715;23;20016;-84
2023/09/16 11:04:02;;;;;;;;;;;;;;;;;;6214888;23;20012;-85
2023/09/16 11:06:28;;;;;;;3.25;2.70;;;;;;;;;;6214476;23;19961;-84
2023/09/16 11:08:54;;;;;;;4.20;2.75;;;;;;;;;;6241671;23;20405;-84
2023/09/16 11:11:21;;;;;;;4.03;2.92;;;;;;;;;;6214767;23;20019;-86
2023/09/16 11:13:48;;;;;;;2.78;2.42;;;;;;;;;;6215082;23;20012;-85
2023/09/16 11:16:14;;;;;;;2.78;2.33;;;;;;;;;;6214254;23;20055;-85
2023/09/16 11:18:42;;;;;;;2.97;2.45;;;;;;;;;;6215036;23;20020;-86
2023/09/16 11:21:08;;;;;;;3.72;2.50;;;;;;;;;;6240155;23;20024;-84
2023/09/16 11:23:36;;;;;;;2.83;2.40;;;;;;;;;;6242086;23;20061;-85
2023/09/16 11:26:04;;;;;;;3.08;2.40;;;;;;;;;;6241426;23;20012;-86
2023/09/16 11:28:30;;;;;;;3.20;2.00;;;;;;;;;;6241734;23;20015;-85
2023/09/16 11:30:58;;;;;;;2.25;1.90;;;;;;;;;;6241709;23;20106;-83
2023/09/16 11:33:27;;;;;;;2.28;2.03;;;;;;;;;;6240704;23;20503;-86
2023/09/16 11:36:12;;;;;;;2.67;1.88;;;;;;;;;;6214450;23;20341;-88
2023/09/16 11:38:54;;;;;;;2.70;1.88;;;;;;;;;;6241662;23;20016;-84
2023/09/16 11:41:20;;;;;;;2.65;2.00;;;;;;;;;;6241424;23;20012;-86
2023/09/16 11:43:46;;;;;;;3.30;1.92;;;;;;;;;;6241900;23;20019;-85
2023/09/16 11:46:13;;;;;;;2.75;2.17;;;;;;;;;;6213498;23;20065;-87
2023/09/16 11:48:48;;;;;;;2.58;1.98;;;;;;;;;;6214227;23;20012;-85
2023/09/16 11:51:16;;;;;;;2.65;2.45;;;;;;;;;;6213997;23;20046;-85
2023/09/16 11:53:42;;;;;;;2.88;2.40;;;;;;;;;;6241952;23;20306;-85
2023/09/16 11:56:08;;;;;;;2.58;2.38;;;;;;;;;;6240827;23;20012;-85
2023/09/16 11:58:34;;;;;;;2.22;2.03;;;;;;;;;;6241357;23;20051;-84
2023/09/16 12:01:01;;;;;;;2.97;2.60;;;;;;;;;;6214051;23;20016;-83
2023/09/16 12:03:28;;;;;;;3.35;2.90;;;;;;;;;;6213923;23;20073;-84
2023/09/16 12:05:55;;;;;;;2.92;2.58;;;;;;;;;;6241396;23;20054;-84
2023/09/16 12:08:21;;;;;;;2.83;2.28;;;;;;;;;;6214583;23;20016;-84
2023/09/16 12:10:48;;;;;;;2.33;2.10;;;;;;;;;;6214690;23;20491;-84
2023/09/16 12:13:25;;;;;;;2.55;1.95;;;;;;;;;;6240633;23;20352;-85
2023/09/16 12:15:51;;;;;;;3.67;2.15;;;;;;;;;;6213865;23;20424;-84
2023/09/16 12:18:17;;;;;;;2.55;2.10;;;;;;;;;;6213174;23;20020;-84
2023/09/16 12:20:43;;;;;;;5.53;2.78;;;;;;;;;;6241685;23;20097;-84
2023/09/16 12:23:09;;;;;;;2.40;2.05;;;;;;;;;;6240213;23;20099;-85
2023/09/16 12:25:42;;;;;;;1.60;1.50;;;;;;;;;;6214620;23;20138;-85
2023/09/16 12:28:10;;;;;;;3.65;2.13;;;;;;;;;;6213882;23;20349;-85
2023/09/16 12:30:45;;;;;;;2.38;1.92;;;;;;;;;;6241719;23;20012;-84
2023/09/16 12:33:11;;;;;;;3.83;2.30;;;;;;;;;;6239565;23;20016;-85
2023/09/16 12:35:38;;;;;;;1.95;1.67;;;;;;;;;;6214388;23;20022;-85
2023/09/16 12:38:04;;;;;;;2.00;1.60;;;;;;;;;;6240836;23;20403;-84
2023/09/16 12:40:30;;;;;;;1.98;1.50;;;;;;;;;;6241289;23;20039;-84
2023/09/16 12:42:57;;;;;;;2.00;1.70;;;;;;;;;;6241043;23;20036;-83
2023/09/16 12:45:23;;;;;;;1.75;1.63;;;;;;;;;;6241330;23;20013;-86
2023/09/16 12:47:50;;;;;;;1.30;1.20;;;;;;;;;;6213412;23;20109;-84
2023/09/16 12:50:16;;;;;;;2.92;1.90;;;;;;;;;;6213494;23;20144;-84
2023/09/16 12:52:43;;;;;;;1.95;1.50;;;;;;;;;;6214255;23;20528;-84
2023/09/16 12:55:12;;;;;;;2.63;2.15;;;;;;;;;;6213616;23;20386;-85
2023/09/16 12:57:39;;;;;;;2.15;1.95;;;;;;;;;;6216267;23;20016;-84
2023/09/16 13:00:08;;;;;;;2.53;1.70;;;;;;;;;;6242563;23;20020;-83
2023/09/16 13:02:36;;;;;;;2.17;1.98;;;;;;;;;;6216104;23;20027;-85
2023/09/16 13:05:10;;;;;;;2.85;1.80;;;;;;;;;;6215984;23;20066;-85
2023/09/16 13:07:37;;;;;;;1.90;1.67;;;;;;;;;;6243487;23;20107;-85
2023/09/16 13:10:03;;;;;;;2.38;1.80;;;;;;;;;;6242632;23;20035;-86
2023/09/16 13:12:30;;;;;;;2.13;1.92;;;;;;;;;;6243044;23;20020;-85
2023/09/16 13:14:57;;;;;;;2.55;1.60;;;;;;;;;;6241717;23;20012;-84
2023/09/16 13:17:23;;;;;;;2.55;1.80;;;;;;;;;;6215833;23;20016;-85
2023/09/16 13:19:49;;;;;;;1.52;1.42;;;;;;;;;;6243104;23;20079;-84
2023/09/16 13:22:17;;;;;;;2.20;1.48;;;;;;;;;;6242665;23;20031;-84
2023/09/16 13:24:45;;;;;;;2.58;1.60;;;;;;;;;;6243277;23;20106;-85
2023/09/16 13:27:16;;;;;;;2.50;1.75;;;;;;;;;;6242201;23;20008;-84
2023/09/16 13:29:42;;;;;;;2.58;1.67;;;;;;;;;;6242706;23;20087;-84
2023/09/16 13:32:10;;;;;;;2.13;1.55;;;;;;;;;;6242021;23;20047;-85
2023/09/16 13:34:46;;;;;;;2.22;1.50;;;;;;;;;;6215943;23;20034;-84
2023/09/16 13:37:12;;;;;;;2.25;2.00;;;;;;;;;;6214802;23;20092;-88
2023/09/16 13:39:45;;;;;;;2.35;1.65;;;;;;;;;;6215808;23;20018;-85
2023/09/16 13:42:14;;;;;;;2.13;1.80;;;;;;;;;;6241847;23;20023;-83
2023/09/16 13:44:45;;;;;;;2.70;1.63;;;;;;;;;;6242409;23;20043;-84
2023/09/16 13:47:11;;;;;;;2.15;1.75;;;;;;;;;;6241635;23;20047;-85
2023/09/16 13:49:37;;;;;;;2.10;1.73;;;;;;;;;;6243094;23;20071;-85
2023/09/16 13:52:03;;;;;;;1.88;1.40;;;;;;;;;;6242247;23;20091;-84
2023/09/16 13:54:30;;;;;;;3.55;2.28;;;;;;;;;;6242523;23;20012;-84
2023/09/16 13:56:56;;;;;;;3.17;2.10;;;;;;;;;;6242290;23;20012;-85
2023/09/16 13:59:22;;;;;;;3.25;2.30;;;;;;;;;;6242273;23;20008;-85
2023/09/16 14:01:48;;;;;;;2.90;1.95;;;;;;;;;;6242740;23;20028;-84
2023/09/16 14:04:14;;;;;;;1.98;1.60;;;;;;;;;;6214777;23;20170;-85
2023/09/16 14:06:40;;;;;;;1.98;1.77;;;;;;;;;;6215938;23;20066;-84
2023/09/16 14:09:06;;;;;;;1.90;1.75;;;;;;;;;;6214787;23;20145;-83
2023/09/16 14:11:32;;;;;;;1.80;1.70;;;;;;;;;;6215444;23;20020;-84
2023/09/16 14:13:58;;;;;;;1.60;1.50;;;;;;;;;;6214412;23;20070;-85
2023/09/16 14:16:24;;;;;;;2.28;1.60;;;;;;;;;;6214983;23;20478;-85
2023/09/16 14:18:50;;;;;;;2.10;1.45;;;;;;;;;;6242221;23;20012;-84
2023/09/16 14:21:16;;;;;;;2.33;1.95;;;;;;;;;;6214872;23;20012;-86
2023/09/16 14:23:42;;;;;;;2.53;1.67;;;;;;;;;;6215630;23;20012;-85
2023/09/16 14:26:08;;;;;;;3.75;1.55;;;;;;;;;;6214436;23;20016;-86
2023/09/16 14:28:34;;;;;;;1.88;1.77;;;;;;;;;;6215181;23;20095;-86
2023/09/16 14:31:06;;;;;;;2.53;1.90;;;;;;;;;;6241970;23;20438;-84
2023/09/16 14:33:35;;;;;;;3.03;1.88;;;;;;;;;;6242252;23;20403;-84
2023/09/16 14:36:01;;;;;;;1.83;1.55;;;;;;;;;;6242088;23;20012;-84
2023/09/16 14:38:27;;;;;;;1.90;1.60;;;;;;;;;;6242178;23;20008;-84
2023/09/16 14:40:53;;;;;;;2.80;1.63;;;;;;;;;;6215557;23;20118;-85